createdAt,value
2023-05-22T00:00:37.425Z,67.20
2023-05-22T00:06:00.603Z,66.49
2023-05-22T00:11:06.388Z,67.04
2023-05-22T00:16:10.802Z,67.26
2023-05-22T00:21:15.297Z,67.86
2023-05-22T00:26:23.398Z,67.19
2023-05-22T00:31:27.646Z,67.02
2023-05-22T00:36:31.802Z,66.45
2023-05-22T00:41:38.900Z,67.57
2023-05-22T00:46:43.429Z,66.63
2023-05-22T00:51:47.637Z,67.18
2023-05-22T00:56:53.685Z,67.58
2023-05-22T01:01:58.264Z,68.22
2023-05-22T01:07:03.267Z,68.37
2023-05-22T01:12:21.705Z,67.66
2023-05-22T01:17:35.105Z,68.64
2023-05-22T01:23:04.246Z,69.70
2023-05-22T01:28:26.541Z,70.25
2023-05-22T01:33:37.441Z,69.19
2023-05-22T01:38:43.223Z,68.10
2023-05-22T01:43:48.011Z,68.67
2023-05-22T01:48:53.876Z,69.18
2023-05-22T01:54:06.373Z,69.85
2023-05-22T01:59:18.562Z,70.44
2023-05-22T02:04:25.661Z,71.21
2023-05-22T02:09:32.308Z,71.79
2023-05-22T02:14:37.333Z,72.57
2023-05-22T02:19:43.121Z,72.38
2023-05-22T02:24:50.249Z,71.42
2023-05-22T02:29:54.982Z,72.87
2023-05-22T02:35:00.543Z,73.63
2023-05-22T02:40:06.450Z,72.78
2023-05-22T02:45:11.882Z,73.09
2023-05-22T02:50:17.707Z,71.21
2023-05-22T02:55:22.066Z,71.92
2023-05-22T03:00:26.470Z,70.22
2023-05-22T03:05:34.017Z,71.05
2023-05-22T03:10:38.809Z,71.57
2023-05-22T03:15:43.338Z,70.93
2023-05-22T03:20:52.628Z,70.97
2023-05-22T03:25:57.067Z,72.21
2023-05-22T03:31:05.282Z,71.62
2023-05-22T03:36:19.630Z,71.78
2023-05-22T03:41:23.926Z,70.98
2023-05-22T03:46:28.881Z,72.00
2023-05-22T03:51:34.761Z,71.82
2023-05-22T03:56:39.159Z,71.45
2023-05-22T04:01:43.424Z,72.17
2023-05-22T04:06:50.038Z,71.10
2023-05-22T04:11:54.630Z,71.11
2023-05-22T04:16:59.673Z,71.74
2023-05-22T04:22:05.494Z,70.39
2023-05-22T04:27:10.204Z,70.15
2023-05-22T04:32:18.340Z,70.41
2023-05-22T04:37:24.978Z,70.00
2023-05-22T04:42:29.281Z,68.63
2023-05-22T04:47:34.409Z,67.31
2023-05-22T04:52:44.492Z,66.63
2023-05-22T04:57:48.984Z,63.90
2023-05-22T05:02:53.986Z,64.65
2023-05-22T05:07:59.692Z,63.77
2023-05-22T05:13:04.009Z,62.50
2023-05-22T05:18:10.083Z,61.69
2023-05-22T05:23:15.816Z,60.68
2023-05-22T05:28:20.080Z,59.56
2023-05-22T05:33:25.200Z,59.08
2023-05-22T05:38:42.393Z,59.05
2023-05-22T05:43:47.177Z,57.07
2023-05-22T05:48:51.513Z,54.78
2023-05-22T05:53:58.186Z,51.53
2023-05-22T05:59:04.225Z,42.36
2023-05-22T06:04:14.920Z,35.95
2023-05-22T06:09:23.647Z,32.01
2023-05-22T06:14:46.232Z,29.83
2023-05-22T06:19:52.479Z,28.86
2023-05-22T06:24:58.173Z,28.32
2023-05-22T06:30:05.680Z,28.03
2023-05-22T06:35:15.199Z,27.18
2023-05-22T06:40:21.162Z,26.99
2023-05-22T06:45:31.964Z,27.13
2023-05-22T06:51:02.186Z,26.05
2023-05-22T06:56:08.681Z,25.77
2023-05-22T07:01:31.829Z,25.68
2023-05-22T07:06:50.373Z,26.45
2023-05-22T07:11:57.057Z,26.34
2023-05-22T07:17:01.818Z,26.60
2023-05-22T07:22:12.432Z,26.30
2023-05-22T07:27:18.862Z,26.49
2023-05-22T07:32:26.045Z,27.01
2023-05-22T07:37:31.971Z,25.87
2023-05-22T07:42:38.689Z,25.58
2023-05-22T07:47:45.048Z,25.22
2023-05-22T07:52:50.155Z,25.01
2023-05-22T07:57:56.528Z,24.56
2023-05-22T08:03:08.964Z,24.33
2023-05-22T08:08:13.487Z,24.17
2023-05-22T08:13:19.860Z,23.24
2023-05-22T08:18:23.977Z,23.04
2023-05-22T08:23:28.396Z,22.62
2023-05-22T08:28:34.011Z,22.79
2023-05-22T08:33:38.401Z,22.67
2023-05-22T08:38:42.683Z,22.58
2023-05-22T08:43:48.780Z,23.67
2023-05-22T08:48:54.054Z,23.70
2023-05-22T08:53:58.646Z,22.97
2023-05-22T08:59:04.961Z,22.67
2023-05-22T09:04:09.699Z,23.63
2023-05-22T09:09:14.078Z,25.53
2023-05-22T09:14:20.308Z,25.59
2023-05-22T09:19:24.997Z,25.73
2023-05-22T09:24:29.602Z,26.47
2023-05-22T09:29:48.729Z,26.67
2023-05-22T09:34:53.162Z,26.22
2023-05-22T09:39:59.345Z,27.01
2023-05-22T09:45:10.185Z,27.50
2023-05-22T09:50:14.644Z,27.74
2023-05-22T09:55:21.960Z,27.71
2023-05-22T10:00:29.283Z,28.11
2023-05-22T10:05:34.221Z,28.41
2023-05-22T10:10:39.858Z,27.47
2023-05-22T10:15:48.304Z,28.12
2023-05-22T10:20:53.983Z,29.00
2023-05-22T10:25:59.685Z,29.29
2023-05-22T10:31:10.834Z,29.79
2023-05-22T10:36:21.756Z,30.31
2023-05-22T10:41:27.269Z,30.11
2023-05-22T10:46:35.573Z,29.40
2023-05-22T10:51:40.439Z,29.60
2023-05-22T10:56:45.744Z,30.42
2023-05-22T11:02:02.421Z,29.88
2023-05-22T11:07:09.019Z,29.08
2023-05-22T11:12:18.272Z,29.58
2023-05-22T11:17:26.164Z,27.96
2023-05-22T11:22:38.016Z,28.81
2023-05-22T11:27:43.113Z,28.68
2023-05-22T11:32:49.272Z,29.46
2023-05-22T11:37:56.411Z,28.30
2023-05-22T11:43:00.824Z,28.40
2023-05-22T11:48:06.617Z,28.00
2023-05-22T11:53:11.367Z,28.23
2023-05-22T11:58:15.733Z,27.58
2023-05-22T12:03:21.307Z,28.22
2023-05-22T12:08:26.566Z,28.08
2023-05-22T12:13:31.503Z,29.27
2023-05-22T12:18:38.697Z,29.53
2023-05-22T12:23:50.334Z,29.13
2023-05-22T12:28:55.738Z,29.32
2023-05-22T12:34:02.673Z,29.95
2023-05-22T12:39:09.547Z,29.83
2023-05-22T12:44:14.210Z,29.96
2023-05-22T12:49:20.214Z,29.16
2023-05-22T12:54:24.676Z,26.57
2023-05-22T12:59:29.144Z,26.04
2023-05-22T13:04:35.156Z,24.60
2023-05-22T13:09:39.617Z,23.72
2023-05-22T13:14:44.481Z,23.93
2023-05-22T13:19:50.201Z,23.27
2023-05-22T13:24:54.444Z,23.71
2023-05-22T13:29:58.860Z,23.42
2023-05-22T13:35:04.502Z,23.12
2023-05-22T13:40:10.805Z,23.17
2023-05-22T13:45:15.294Z,24.79
2023-05-22T13:50:21.167Z,24.95
2023-05-22T13:55:25.797Z,24.44
2023-05-22T14:00:30.104Z,25.51
2023-05-22T14:05:36.957Z,25.29
2023-05-22T14:10:42.285Z,25.94
2023-05-22T14:15:47.578Z,25.39
2023-05-22T14:20:53.185Z,24.53
2023-05-22T14:25:57.623Z,25.07
2023-05-22T14:31:02.155Z,24.88
2023-05-22T14:36:08.599Z,25.20
2023-05-22T14:41:13.351Z,25.71
2023-05-22T14:46:17.522Z,24.61
2023-05-22T14:51:23.489Z,25.51
2023-05-22T14:56:28.505Z,26.67
2023-05-22T15:01:32.712Z,28.03
2023-05-22T15:06:39.308Z,26.35
2023-05-22T15:11:46.915Z,26.73
2023-05-22T15:16:51.464Z,26.54
2023-05-22T15:22:00.749Z,26.63
2023-05-22T15:27:10.225Z,27.04
2023-05-22T15:32:14.482Z,26.72
2023-05-22T15:37:20.176Z,27.10
2023-05-22T15:42:25.004Z,27.22
2023-05-22T15:47:30.603Z,27.68
2023-05-22T15:52:36.217Z,28.04
2023-05-22T15:57:40.418Z,28.78
2023-05-22T16:02:44.843Z,28.29
2023-05-22T16:07:50.895Z,28.74
2023-05-22T16:12:55.145Z,29.14
2023-05-22T16:17:59.567Z,28.96
2023-05-22T16:23:05.506Z,29.75
2023-05-22T16:28:11.246Z,30.11
2023-05-22T16:33:15.548Z,30.91
2023-05-22T16:38:21.746Z,31.58
2023-05-22T16:43:26.398Z,33.46
2023-05-22T16:48:30.690Z,33.38
2023-05-22T16:53:38.349Z,33.93
2023-05-22T16:58:42.881Z,35.18
2023-05-22T17:03:48.040Z,35.86
2023-05-22T17:08:53.915Z,36.73
2023-05-22T17:13:58.120Z,38.21
2023-05-22T17:19:02.808Z,38.69
2023-05-22T17:24:12.681Z,38.84
2023-05-22T17:29:18.239Z,39.02
2023-05-22T17:34:22.407Z,39.09
2023-05-22T17:39:28.898Z,40.53
2023-05-22T17:44:33.367Z,41.54
2023-05-22T17:49:38.735Z,41.85
2023-05-22T17:54:44.389Z,43.24
2023-05-22T17:59:48.810Z,44.79
2023-05-22T18:04:53.189Z,45.72
2023-05-22T18:09:59.119Z,46.11
2023-05-22T18:15:04.730Z,46.94
2023-05-22T18:20:11.965Z,48.36
2023-05-22T18:25:18.016Z,50.04
2023-05-22T18:30:22.481Z,50.25
2023-05-22T18:35:27.384Z,50.34
2023-05-22T18:40:33.943Z,51.96
2023-05-22T18:45:38.312Z,51.78
2023-05-22T18:50:42.660Z,52.08
2023-05-22T18:55:49.276Z,53.63
2023-05-22T19:00:55.657Z,53.94
2023-05-22T19:05:59.970Z,55.08
2023-05-22T19:11:06.478Z,55.96
2023-05-22T19:16:10.648Z,56.15
2023-05-22T19:21:15.462Z,56.34
2023-05-22T19:26:21.541Z,57.51
2023-05-22T19:31:26.030Z,59.00
2023-05-22T19:36:31.447Z,59.75
2023-05-22T19:41:38.244Z,60.00
2023-05-22T19:46:42.563Z,59.41
2023-05-22T19:51:47.013Z,60.75
2023-05-22T19:56:53.279Z,60.70
2023-05-22T20:01:58.135Z,60.22
2023-05-22T20:07:03.928Z,61.35
2023-05-22T20:12:10.649Z,61.83
2023-05-22T20:17:15.504Z,61.55
2023-05-22T20:22:20.260Z,61.68
2023-05-22T20:27:26.081Z,61.98
2023-05-22T20:32:31.072Z,62.54
2023-05-22T20:37:36.140Z,63.57
2023-05-22T20:42:43.213Z,64.00
2023-05-22T20:47:48.663Z,64.56
2023-05-22T20:52:53.111Z,64.51
2023-05-22T20:57:58.839Z,65.25
2023-05-22T21:03:03.134Z,65.94
2023-05-22T21:08:08.054Z,66.39
2023-05-22T21:13:14.021Z,66.61
2023-05-22T21:18:19.917Z,66.56
2023-05-22T21:23:24.795Z,66.85
2023-05-22T21:28:30.501Z,68.39
2023-05-22T21:33:35.250Z,68.74
2023-05-22T21:38:39.614Z,68.25
2023-05-22T21:43:45.862Z,69.47
2023-05-22T21:48:50.251Z,68.93
2023-05-22T21:53:55.096Z,69.41
2023-05-22T21:59:00.651Z,70.05
2023-05-22T22:04:05.275Z,70.86
2023-05-22T22:09:09.504Z,70.16
2023-05-22T22:14:15.182Z,70.55
2023-05-22T22:19:19.896Z,71.21
2023-05-22T22:24:24.414Z,71.56
2023-05-22T22:29:30.396Z,71.08
2023-05-22T22:34:35.041Z,71.42
2023-05-22T22:39:39.382Z,72.83
2023-05-22T22:44:45.536Z,71.45
2023-05-22T22:49:50.007Z,71.61
2023-05-22T22:54:54.185Z,71.93
2023-05-22T23:00:00.296Z,72.30
2023-05-22T23:05:04.788Z,73.10
2023-05-22T23:10:10.871Z,73.80
2023-05-22T23:15:16.730Z,73.28
2023-05-22T23:20:21.493Z,73.92
2023-05-22T23:25:25.677Z,74.19
2023-05-22T23:30:31.271Z,75.21
2023-05-22T23:35:35.924Z,75.43
2023-05-22T23:40:40.389Z,75.14
2023-05-22T23:45:46.504Z,75.45
2023-05-22T23:50:50.675Z,75.69
2023-05-22T23:55:54.823Z,77.07
